createdAt,value
2023-08-09T00:00:58.696Z,6.55
2023-08-09T00:02:01.295Z,8.27
2023-08-09T00:03:06.023Z,6.30
2023-08-09T00:04:08.630Z,7.13
2023-08-09T00:05:11.121Z,6.25
2023-08-09T00:06:13.590Z,10.27
2023-08-09T00:07:15.984Z,6.60
2023-08-09T00:08:18.543Z,8.77
2023-08-09T00:09:22.628Z,7.32
2023-08-09T00:10:26.634Z,7.15
2023-08-09T00:12:33.050Z,6.20
2023-08-09T00:13:35.545Z,6.80
2023-08-09T00:14:38.039Z,9.35
2023-08-09T00:15:40.929Z,6.95
2023-08-09T00:16:43.601Z,6.47
2023-08-09T00:17:46.361Z,11.45
2023-08-09T00:18:49.359Z,5.90
2023-08-09T00:19:52.317Z,8.68
2023-08-09T00:20:56.346Z,6.90
2023-08-09T00:22:00.633Z,7.93
2023-08-09T00:23:03.339Z,7.72
2023-08-09T00:24:05.976Z,8.63
2023-08-09T00:25:10.322Z,6.35
2023-08-09T00:26:12.933Z,6.55
2023-08-09T00:27:15.311Z,7.57
2023-08-09T00:28:17.604Z,7.75
2023-08-09T00:29:19.976Z,7.93
2023-08-09T00:30:23.968Z,10.60
2023-08-09T00:31:26.548Z,6.65
2023-08-09T00:32:29.080Z,5.90
2023-08-09T00:33:31.601Z,9.23
2023-08-09T00:34:33.969Z,7.60
2023-08-09T00:35:36.498Z,8.23
2023-08-09T00:36:39.138Z,7.05
2023-08-09T00:37:41.537Z,6.57
2023-08-09T00:38:44.561Z,7.55
2023-08-09T00:39:47.600Z,7.15
2023-08-09T00:40:49.872Z,8.18
2023-08-09T00:41:52.425Z,5.78
2023-08-09T00:42:56.306Z,7.28
2023-08-09T00:43:58.820Z,8.45
2023-08-09T00:45:01.612Z,7.38
2023-08-09T00:46:04.303Z,6.50
2023-08-09T00:47:11.051Z,7.50
2023-08-09T00:48:13.423Z,7.05
2023-08-09T00:49:15.842Z,7.78
2023-08-09T00:50:18.288Z,5.40
2023-08-09T00:51:21.470Z,8.25
2023-08-09T00:52:23.806Z,7.05
2023-08-09T00:53:27.453Z,6.90
2023-08-09T00:54:30.962Z,8.88
2023-08-09T00:55:33.550Z,9.35
2023-08-09T00:56:36.756Z,9.52
2023-08-09T00:57:40.016Z,9.15
2023-08-09T00:58:42.487Z,8.85
2023-08-09T00:59:46.327Z,6.97
2023-08-09T01:00:48.752Z,6.28
2023-08-09T01:01:52.600Z,8.68
2023-08-09T01:02:55.981Z,7.28
2023-08-09T01:03:58.921Z,8.27
2023-08-09T01:05:05.194Z,11.77
2023-08-09T01:06:53.346Z,8.02
2023-08-09T01:09:26.052Z,7.68
2023-08-09T01:10:36.040Z,9.32
2023-08-09T01:11:54.882Z,8.23
2023-08-09T01:13:07.913Z,7.68
2023-08-09T01:14:13.296Z,5.82
2023-08-09T01:15:17.738Z,8.10
2023-08-09T01:16:21.916Z,7.85
2023-08-09T01:17:29.929Z,8.73
2023-08-09T01:18:33.147Z,7.65
2023-08-09T01:19:35.714Z,7.47
2023-08-09T01:20:39.270Z,7.25
2023-08-09T01:21:44.808Z,7.05
2023-08-09T01:22:58.838Z,7.40
2023-08-09T01:24:02.463Z,9.32
2023-08-09T01:25:08.245Z,6.88
2023-08-09T01:26:12.246Z,5.57
2023-08-09T01:27:14.630Z,7.20
2023-08-09T01:28:18.354Z,6.57
2023-08-09T01:30:25.181Z,14.50
2023-08-09T01:31:29.875Z,6.30
2023-08-09T01:32:32.766Z,6.60
2023-08-09T01:33:35.272Z,6.85
2023-08-09T01:34:38.988Z,6.72
2023-08-09T01:35:51.037Z,7.20
2023-08-09T01:36:55.504Z,6.78
2023-08-09T01:38:04.946Z,5.75
2023-08-09T01:39:12.806Z,7.22
2023-08-09T01:40:19.231Z,6.30
2023-08-09T01:41:22.600Z,7.22
2023-08-09T01:42:25.280Z,8.15
2023-08-09T01:43:28.185Z,6.05
2023-08-09T01:44:32.025Z,7.43
2023-08-09T01:45:36.018Z,10.30
2023-08-09T01:47:42.759Z,6.10
2023-08-09T01:48:45.264Z,6.70
2023-08-09T01:49:49.134Z,5.32
2023-08-09T01:51:54.264Z,5.15
2023-08-09T01:52:57.103Z,8.10
2023-08-09T01:54:00.241Z,5.97
2023-08-09T01:55:03.754Z,5.47
2023-08-09T01:56:06.971Z,6.60
2023-08-09T01:57:09.656Z,7.20
2023-08-09T01:58:12.074Z,6.75
2023-08-09T01:59:14.466Z,7.57
2023-08-09T02:00:20.103Z,6.63
2023-08-09T02:01:23.225Z,10.15
2023-08-09T02:02:25.979Z,7.78
2023-08-09T02:03:28.463Z,8.25
2023-08-09T02:04:30.872Z,6.47
2023-08-09T02:05:33.412Z,6.35
2023-08-09T02:06:36.066Z,6.65
2023-08-09T02:07:38.747Z,5.22
2023-08-09T02:08:45.274Z,7.45
2023-08-09T02:09:48.603Z,6.25
2023-08-09T02:10:51.025Z,6.00
2023-08-09T02:11:53.529Z,7.07
2023-08-09T02:12:56.095Z,5.43
2023-08-09T02:13:58.594Z,5.63
2023-08-09T02:15:01.052Z,6.38
2023-08-09T02:16:08.034Z,6.03
2023-08-09T02:17:12.159Z,6.25
2023-08-09T02:18:14.606Z,5.53
2023-08-09T02:19:17.211Z,5.18
2023-08-09T02:20:22.695Z,7.43
2023-08-09T02:21:25.169Z,8.18
2023-08-09T02:22:36.453Z,6.55
2023-08-09T02:23:39.870Z,6.07
2023-08-09T02:24:42.586Z,6.05
2023-08-09T02:25:45.383Z,6.38
2023-08-09T02:26:48.094Z,8.23
2023-08-09T02:27:50.860Z,6.10
2023-08-09T02:28:53.476Z,8.30
2023-08-09T02:29:56.793Z,11.23
2023-08-09T02:30:59.579Z,6.88
2023-08-09T02:32:02.146Z,6.05
2023-08-09T02:33:05.128Z,11.50
2023-08-09T02:34:08.735Z,7.50
2023-08-09T02:35:12.105Z,6.43
2023-08-09T02:36:15.056Z,7.75
2023-08-09T02:37:18.360Z,6.80
2023-08-09T02:38:30.690Z,6.88
2023-08-09T02:39:39.530Z,9.77
2023-08-09T02:40:49.895Z,6.05
2023-08-09T02:41:52.423Z,6.40
2023-08-09T02:42:54.982Z,9.02
2023-08-09T02:43:57.756Z,11.98
2023-08-09T02:45:00.682Z,7.05
2023-08-09T02:46:05.681Z,10.98
2023-08-09T02:47:09.568Z,8.98
2023-08-09T02:48:12.581Z,6.57
2023-08-09T02:49:15.252Z,6.80
2023-08-09T02:50:18.072Z,7.00
2023-08-09T02:51:20.813Z,7.13
2023-08-09T02:52:26.750Z,7.85
2023-08-09T02:53:57.509Z,6.97
2023-08-09T02:55:00.113Z,9.13
2023-08-09T02:56:03.413Z,10.18
2023-08-09T02:57:06.218Z,6.70
2023-08-09T02:58:09.259Z,8.30
2023-08-09T02:59:11.931Z,8.20
2023-08-09T03:00:17.705Z,10.45
2023-08-09T03:01:23.629Z,8.35
2023-08-09T03:02:28.284Z,7.78
2023-08-09T03:03:31.035Z,10.30
2023-08-09T03:04:34.499Z,8.15
2023-08-09T03:05:38.036Z,9.77
2023-08-09T03:06:41.141Z,12.85
2023-08-09T03:07:44.121Z,9.82
2023-08-09T03:08:47.013Z,10.60
2023-08-09T03:09:58.689Z,11.65
2023-08-09T03:11:01.306Z,14.00
2023-08-09T03:12:04.350Z,13.10
2023-08-09T03:13:06.869Z,11.32
2023-08-09T03:14:11.339Z,10.23
2023-08-09T03:15:13.777Z,11.23
2023-08-09T03:16:16.241Z,9.88
2023-08-09T03:17:19.039Z,11.85
2023-08-09T03:18:23.216Z,10.20
2023-08-09T03:19:25.889Z,10.77
2023-08-09T03:20:31.089Z,12.98
2023-08-09T03:21:34.030Z,12.65
2023-08-09T03:22:36.745Z,12.52
2023-08-09T03:23:40.243Z,12.93
2023-08-09T03:24:43.387Z,12.25
2023-08-09T03:25:46.381Z,11.55
2023-08-09T03:26:49.224Z,10.82
2023-08-09T03:27:54.046Z,11.82
2023-08-09T03:28:56.588Z,11.60
2023-08-09T03:29:59.539Z,12.15
2023-08-09T03:31:04.017Z,11.23
2023-08-09T03:32:11.122Z,13.18
2023-08-09T03:33:13.912Z,13.82
2023-08-09T03:34:17.414Z,10.23
2023-08-09T03:35:22.317Z,11.02
2023-08-09T03:37:27.725Z,11.35
2023-08-09T03:38:30.175Z,12.32
2023-08-09T03:39:33.029Z,12.88
2023-08-09T03:40:35.637Z,14.15
2023-08-09T03:41:39.343Z,9.95
2023-08-09T03:42:44.143Z,14.18
2023-08-09T03:44:50.035Z,12.23
2023-08-09T03:45:53.343Z,11.77
2023-08-09T03:46:57.705Z,12.02
2023-08-09T03:48:01.130Z,11.02
2023-08-09T03:49:04.146Z,12.07
2023-08-09T03:50:08.273Z,12.45
2023-08-09T03:51:10.908Z,14.40
2023-08-09T03:52:13.419Z,12.50
2023-08-09T03:53:16.732Z,10.52
2023-08-09T03:54:20.702Z,14.95
2023-08-09T03:55:23.404Z,12.40
2023-08-09T03:56:26.280Z,11.15
2023-08-09T03:57:29.033Z,14.57
2023-08-09T03:58:31.798Z,12.00
2023-08-09T03:59:34.293Z,11.48
2023-08-09T04:00:40.496Z,9.73
2023-08-09T04:01:43.244Z,10.88
2023-08-09T04:02:47.206Z,10.27
2023-08-09T04:03:49.884Z,8.70
2023-08-09T04:04:52.569Z,11.48
2023-08-09T04:05:55.306Z,12.35
2023-08-09T04:06:57.981Z,9.23
2023-08-09T04:08:02.863Z,10.10
2023-08-09T04:09:05.844Z,8.93
2023-08-09T04:10:09.461Z,13.77
2023-08-09T04:11:12.082Z,10.18
2023-08-09T04:12:14.863Z,12.57
2023-08-09T04:13:17.440Z,13.18
2023-08-09T04:14:20.856Z,11.32
2023-08-09T04:15:23.517Z,12.93
2023-08-09T04:16:27.099Z,9.70
2023-08-09T04:17:29.982Z,8.73
2023-08-09T04:18:37.232Z,10.38
2023-08-09T04:19:39.820Z,14.23
2023-08-09T04:20:43.349Z,10.02
2023-08-09T04:21:45.853Z,10.68
2023-08-09T04:22:48.645Z,10.88
2023-08-09T04:23:51.258Z,9.98
2023-08-09T04:24:53.989Z,12.90
2023-08-09T04:25:58.918Z,9.27
2023-08-09T04:27:02.497Z,12.00
2023-08-09T04:29:08.472Z,9.88
2023-08-09T04:30:11.290Z,13.20
2023-08-09T04:31:14.486Z,10.65
2023-08-09T04:32:16.874Z,13.32
2023-08-09T04:33:20.083Z,12.55
2023-08-09T04:34:24.825Z,11.02
2023-08-09T04:35:27.360Z,9.45
2023-08-09T04:36:30.405Z,11.98
2023-08-09T04:37:33.188Z,9.48
2023-08-09T04:38:35.663Z,11.10
2023-08-09T04:39:38.112Z,10.75
2023-08-09T04:40:41.219Z,8.55
2023-08-09T04:41:43.850Z,8.75
2023-08-09T04:42:48.423Z,9.25
2023-08-09T04:43:51.062Z,10.15
2023-08-09T04:44:53.400Z,9.35
2023-08-09T04:45:56.032Z,8.13
2023-08-09T04:46:59.791Z,10.90
2023-08-09T04:49:05.800Z,9.57
2023-08-09T04:50:08.807Z,10.75
2023-08-09T04:51:11.693Z,7.00
2023-08-09T04:52:14.373Z,8.15
2023-08-09T04:53:16.743Z,9.05
2023-08-09T04:54:19.065Z,9.02
2023-08-09T04:55:21.528Z,11.02
2023-08-09T04:56:24.090Z,8.20
2023-08-09T04:57:26.579Z,7.47
2023-08-09T04:58:29.144Z,10.30
2023-08-09T04:59:31.524Z,7.63
2023-08-09T05:00:35.323Z,6.68
2023-08-09T05:01:37.752Z,6.13
2023-08-09T05:02:44.635Z,7.38
2023-08-09T05:03:47.431Z,6.85
2023-08-09T05:04:50.550Z,7.95
2023-08-09T05:05:53.272Z,8.02
2023-08-09T05:06:56.242Z,11.05
2023-08-09T05:07:58.922Z,6.63
2023-08-09T05:09:02.839Z,8.43
2023-08-09T05:11:08.540Z,7.13
2023-08-09T05:12:11.267Z,8.38
2023-08-09T05:13:13.917Z,9.50
2023-08-09T05:14:16.895Z,7.25
2023-08-09T05:15:19.428Z,8.02
2023-08-09T05:16:25.962Z,8.98
2023-08-09T05:17:29.818Z,8.43
2023-08-09T05:18:32.709Z,6.72
2023-08-09T05:19:36.033Z,8.07
2023-08-09T05:20:39.793Z,6.97
2023-08-09T05:21:42.906Z,7.25
2023-08-09T05:22:46.241Z,8.35
2023-08-09T05:23:53.291Z,10.23
2023-08-09T05:24:57.522Z,10.73
2023-08-09T05:26:01.102Z,8.50
2023-08-09T05:27:05.009Z,5.43
2023-08-09T05:28:08.072Z,6.38
2023-08-09T05:29:15.252Z,6.93
2023-08-09T05:30:20.918Z,5.93
2023-08-09T05:31:25.097Z,5.57
2023-08-09T05:32:28.112Z,6.88
2023-08-09T05:33:33.479Z,7.93
2023-08-09T05:34:36.247Z,5.15
2023-08-09T05:35:39.739Z,8.88
2023-08-09T05:36:44.233Z,7.32
2023-08-09T05:37:46.619Z,7.03
2023-08-09T05:38:49.098Z,7.43
2023-08-09T05:39:52.282Z,5.13
2023-08-09T05:40:58.140Z,6.40
2023-08-09T05:42:02.351Z,9.25
2023-08-09T05:43:06.289Z,5.80
2023-08-09T05:44:08.903Z,8.43
2023-08-09T05:45:23.035Z,6.13
2023-08-09T05:47:30.017Z,7.03
2023-08-09T05:48:32.616Z,6.80
2023-08-09T05:49:34.914Z,6.55
2023-08-09T05:50:37.365Z,7.07
2023-08-09T05:51:39.960Z,6.35
2023-08-09T05:52:43.870Z,6.63
2023-08-09T05:53:48.048Z,5.05
2023-08-09T05:54:52.508Z,7.13
2023-08-09T05:55:54.989Z,5.13
2023-08-09T05:56:57.430Z,4.18
2023-08-09T05:58:00.101Z,6.50
2023-08-09T05:59:02.485Z,6.15
2023-08-09T06:00:07.578Z,4.60
2023-08-09T06:01:10.075Z,5.70
2023-08-09T06:02:13.098Z,6.65
2023-08-09T06:03:15.678Z,5.75
2023-08-09T06:04:18.936Z,6.40
2023-08-09T06:05:27.367Z,4.03
2023-08-09T06:06:30.049Z,6.80
2023-08-09T06:07:32.405Z,4.22
2023-08-09T06:08:38.955Z,5.03
2023-08-09T06:09:41.942Z,4.53
2023-08-09T06:10:44.554Z,5.50
2023-08-09T06:11:48.990Z,3.92
2023-08-09T06:13:00.013Z,3.90
2023-08-09T06:14:09.490Z,3.97
2023-08-09T06:15:21.866Z,6.18
2023-08-09T06:16:24.493Z,5.07
2023-08-09T06:17:33.408Z,6.30
2023-08-09T06:18:37.533Z,3.88
2023-08-09T06:19:40.243Z,5.45
2023-08-09T06:20:42.587Z,6.00
2023-08-09T06:21:46.112Z,3.53
2023-08-09T06:22:51.567Z,4.72
2023-08-09T06:24:08.919Z,4.25
2023-08-09T06:25:16.825Z,6.25
2023-08-09T06:26:22.465Z,4.38
2023-08-09T06:27:25.247Z,6.32
2023-08-09T06:28:27.772Z,4.47
2023-08-09T06:29:32.519Z,4.53
2023-08-09T06:30:38.388Z,4.32
2023-08-09T06:31:43.335Z,4.03
2023-08-09T06:32:45.817Z,4.57
2023-08-09T06:33:48.358Z,4.20
2023-08-09T06:34:50.886Z,4.03
2023-08-09T06:35:59.392Z,3.95
2023-08-09T06:37:11.368Z,4.40
2023-08-09T06:38:16.095Z,3.20
2023-08-09T06:39:20.893Z,3.25
2023-08-09T06:40:24.310Z,5.70
2023-08-09T06:41:27.053Z,4.60
2023-08-09T06:42:29.527Z,4.93
2023-08-09T06:43:35.901Z,5.30
2023-08-09T06:44:38.396Z,5.38
2023-08-09T06:45:40.923Z,3.58
2023-08-09T06:46:56.091Z,4.70
2023-08-09T06:48:06.521Z,5.30
2023-08-09T06:49:11.064Z,5.38
2023-08-09T06:50:13.629Z,4.38
2023-08-09T06:51:16.568Z,5.68
2023-08-09T06:52:19.127Z,3.85
2023-08-09T06:53:21.636Z,3.35
2023-08-09T06:54:29.497Z,4.22
2023-08-09T06:55:57.719Z,2.88
2023-08-09T06:59:06.006Z,5.53
2023-08-09T07:02:21.995Z,5.30
2023-08-09T07:03:37.176Z,3.85
2023-08-09T07:04:56.703Z,4.38
2023-08-09T07:05:59.705Z,4.60
2023-08-09T07:07:02.726Z,6.03
2023-08-09T07:08:10.095Z,3.38
2023-08-09T07:11:07.149Z,3.72
2023-08-09T07:12:10.178Z,5.82
2023-08-09T07:13:13.772Z,5.40
2023-08-09T07:14:17.296Z,4.35
2023-08-09T07:15:20.264Z,3.50
2023-08-09T07:16:23.748Z,4.20
2023-08-09T07:17:27.070Z,5.32
2023-08-09T07:18:30.218Z,4.45
2023-08-09T07:19:35.491Z,6.57
2023-08-09T07:20:37.953Z,4.88
2023-08-09T07:21:41.201Z,3.40
2023-08-09T07:22:46.281Z,5.53
2023-08-09T07:23:57.302Z,4.32
2023-08-09T07:25:01.461Z,4.45
2023-08-09T07:26:04.099Z,3.83
2023-08-09T07:27:07.101Z,4.45
2023-08-09T07:28:10.462Z,4.43
2023-08-09T07:29:12.944Z,3.88
2023-08-09T07:30:16.847Z,4.63
2023-08-09T07:31:23.557Z,4.32
2023-08-09T07:32:26.613Z,3.80
2023-08-09T07:33:31.864Z,3.05
2023-08-09T07:34:38.778Z,4.28
2023-08-09T07:35:46.612Z,6.18
2023-08-09T07:36:52.364Z,5.97
2023-08-09T07:37:58.616Z,4.75
2023-08-09T07:39:05.556Z,4.30
2023-08-09T07:40:25.103Z,3.70
2023-08-09T07:41:38.685Z,5.13
2023-08-09T07:42:44.851Z,4.38
2023-08-09T07:43:50.003Z,9.98
2023-08-09T07:44:53.704Z,5.60
2023-08-09T07:45:57.112Z,3.97
2023-08-09T07:47:02.636Z,5.38
2023-08-09T07:48:11.410Z,5.18
2023-08-09T07:49:20.108Z,11.15
2023-08-09T07:50:26.409Z,6.53
2023-08-09T07:51:30.585Z,12.05
2023-08-09T07:52:36.033Z,7.38
2023-08-09T07:53:38.815Z,4.30
2023-08-09T07:54:41.715Z,6.30
2023-08-09T07:55:44.354Z,4.68
2023-08-09T07:56:47.162Z,4.10
2023-08-09T07:57:57.094Z,5.32
2023-08-09T08:00:15.101Z,4.32
2023-08-09T08:01:20.124Z,5.57
2023-08-09T08:02:22.547Z,5.97
2023-08-09T08:03:25.482Z,15.98
2023-08-09T08:04:28.049Z,5.60
2023-08-09T08:05:30.874Z,9.25
2023-08-09T08:06:53.015Z,23.00
2023-08-09T08:07:56.881Z,8.68
2023-08-09T08:10:29.219Z,20.75
2023-08-09T08:11:31.861Z,4.57
2023-08-09T08:12:34.216Z,5.22
2023-08-09T08:13:36.689Z,5.43
2023-08-09T08:14:46.374Z,4.57
2023-08-09T08:16:13.831Z,6.10
2023-08-09T08:17:55.564Z,3.40
2023-08-09T08:18:58.683Z,5.18
2023-08-09T08:20:01.586Z,3.72
2023-08-09T08:21:04.845Z,3.22
2023-08-09T08:22:07.383Z,4.97
2023-08-09T08:23:10.199Z,5.10
2023-08-09T08:24:12.782Z,4.60
2023-08-09T08:25:15.781Z,4.55
2023-08-09T08:26:20.021Z,5.18
2023-08-09T08:27:22.469Z,3.72
2023-08-09T08:28:26.663Z,2.97
2023-08-09T08:29:29.759Z,4.95
2023-08-09T08:30:32.905Z,3.15
2023-08-09T08:34:01.259Z,4.35
2023-08-09T08:35:04.256Z,3.60
2023-08-09T08:36:22.053Z,4.88
2023-08-09T08:37:30.766Z,3.60
2023-08-09T08:38:33.291Z,3.22
2023-08-09T08:39:37.563Z,4.18
2023-08-09T08:40:40.323Z,2.80
2023-08-09T08:41:44.102Z,4.03
2023-08-09T08:43:50.954Z,2.28
2023-08-09T08:44:53.652Z,3.25
2023-08-09T08:45:56.905Z,2.40
2023-08-09T08:47:01.026Z,5.13
2023-08-09T08:48:06.073Z,4.25
2023-08-09T08:49:15.364Z,5.65
2023-08-09T08:50:20.520Z,5.00
2023-08-09T08:51:26.272Z,2.15
2023-08-09T08:52:32.509Z,2.80
2023-08-09T08:53:39.279Z,3.50
2023-08-09T08:54:44.842Z,3.03
2023-08-09T08:55:50.213Z,3.30
2023-08-09T08:56:55.473Z,3.33
2023-08-09T08:58:02.224Z,2.22
2023-08-09T08:59:09.419Z,3.17
2023-08-09T09:01:28.224Z,2.65
2023-08-09T09:02:34.123Z,4.18
2023-08-09T09:03:38.142Z,4.40
2023-08-09T09:04:40.757Z,2.22
2023-08-09T09:05:43.512Z,2.30
2023-08-09T09:06:46.427Z,2.33
2023-08-09T09:07:52.980Z,3.08
2023-08-09T09:09:01.028Z,3.38
2023-08-09T09:10:06.597Z,4.72
2023-08-09T09:11:17.325Z,2.63
2023-08-09T09:12:21.295Z,2.80
2023-08-09T09:13:28.808Z,3.00
2023-08-09T09:14:31.173Z,2.47
2023-08-09T09:15:37.336Z,2.45
2023-08-09T09:16:40.811Z,4.22
2023-08-09T09:17:45.935Z,3.55
2023-08-09T09:18:50.512Z,3.00
2023-08-09T09:19:53.591Z,4.00
2023-08-09T09:20:56.374Z,3.60
2023-08-09T09:21:59.625Z,3.33
2023-08-09T09:23:08.983Z,4.18
2023-08-09T09:24:11.972Z,2.40
2023-08-09T09:25:15.866Z,3.30
2023-08-09T09:26:28.707Z,3.03
2023-08-09T09:27:36.076Z,5.15
2023-08-09T09:28:48.061Z,2.22
2023-08-09T09:29:51.663Z,3.67
2023-08-09T09:31:00.646Z,2.92
2023-08-09T09:32:10.160Z,2.10
2023-08-09T09:33:15.158Z,3.10
2023-08-09T09:34:18.220Z,2.47
2023-08-09T09:35:23.427Z,3.25
2023-08-09T09:36:26.317Z,2.88
2023-08-09T09:37:30.033Z,2.58
2023-08-09T09:39:38.696Z,3.08
2023-08-09T09:40:44.199Z,3.42
2023-08-09T09:41:51.436Z,3.47
2023-08-09T09:42:56.673Z,3.53
2023-08-09T09:44:00.568Z,1.98
2023-08-09T09:45:07.752Z,3.95
2023-08-09T09:46:34.173Z,2.40
2023-08-09T09:47:44.346Z,1.70
2023-08-09T09:49:04.861Z,2.40
2023-08-09T09:50:09.160Z,2.17
2023-08-09T09:51:11.942Z,3.30
2023-08-09T09:52:16.715Z,1.85
2023-08-09T09:54:25.130Z,4.25
2023-08-09T09:55:30.681Z,2.53
2023-08-09T09:56:34.825Z,2.08
2023-08-09T09:57:38.628Z,1.95
2023-08-09T09:58:42.669Z,4.60
2023-08-09T09:59:45.461Z,3.10
2023-08-09T10:00:50.931Z,3.22
2023-08-09T10:01:55.262Z,1.92
2023-08-09T10:03:01.117Z,2.38
2023-08-09T10:04:08.925Z,4.22
2023-08-09T10:05:13.048Z,2.40
2023-08-09T10:06:34.816Z,3.22
2023-08-09T10:07:38.058Z,5.80
2023-08-09T10:08:41.308Z,1.92
2023-08-09T10:09:45.628Z,2.08
2023-08-09T10:10:51.449Z,3.20
2023-08-09T10:11:55.270Z,2.03
2023-08-09T10:14:02.688Z,2.67
2023-08-09T10:15:07.991Z,1.77
2023-08-09T10:16:37.486Z,3.33
2023-08-09T10:17:45.195Z,2.67
2023-08-09T10:18:53.831Z,2.20
2023-08-09T10:20:06.306Z,2.42
2023-08-09T10:21:16.200Z,2.38
2023-08-09T10:22:23.741Z,2.30
2023-08-09T10:23:31.048Z,2.47
2023-08-09T10:24:44.883Z,2.25
2023-08-09T10:25:49.275Z,2.58
2023-08-09T10:26:55.611Z,2.25
2023-08-09T10:28:03.551Z,6.13
2023-08-09T10:29:16.191Z,1.85
2023-08-09T10:30:23.606Z,2.78
2023-08-09T10:31:50.638Z,3.55
2023-08-09T10:33:02.541Z,5.03
2023-08-09T10:34:11.149Z,1.73
2023-08-09T10:35:23.658Z,3.10
2023-08-09T10:36:37.926Z,2.40
2023-08-09T10:37:45.929Z,1.98
2023-08-09T10:38:52.872Z,2.00
2023-08-09T10:40:22.785Z,2.60
2023-08-09T10:41:27.925Z,1.48
2023-08-09T10:42:37.343Z,2.30
2023-08-09T10:43:40.105Z,2.33
2023-08-09T10:44:46.966Z,2.80
2023-08-09T10:45:54.365Z,2.50
2023-08-09T10:47:03.674Z,4.10
2023-08-09T10:50:16.104Z,1.60
2023-08-09T10:51:21.298Z,2.70
2023-08-09T10:52:38.050Z,4.22
2023-08-09T10:54:04.281Z,1.75
2023-08-09T10:55:27.629Z,3.78
2023-08-09T10:56:43.804Z,2.60
2023-08-09T10:57:49.419Z,1.55
2023-08-09T10:58:53.950Z,2.70
2023-08-09T11:00:01.210Z,2.85
2023-08-09T11:01:04.029Z,2.20
2023-08-09T11:02:10.157Z,5.72
2023-08-09T11:03:13.316Z,2.03
2023-08-09T11:04:22.375Z,2.45
2023-08-09T11:05:34.893Z,2.55
2023-08-09T11:06:39.423Z,3.22
2023-08-09T11:07:57.476Z,1.77
2023-08-09T11:09:15.400Z,1.75
2023-08-09T11:10:34.511Z,1.60
2023-08-09T11:11:38.064Z,1.77
2023-08-09T11:12:43.554Z,4.32
2023-08-09T11:13:56.139Z,1.45
2023-08-09T11:14:59.414Z,3.30
2023-08-09T11:16:08.695Z,1.95
2023-08-09T11:17:15.006Z,1.65
2023-08-09T11:18:17.828Z,2.50
2023-08-09T11:19:34.236Z,1.63
2023-08-09T11:31:59.172Z,1.75
2023-08-09T11:33:06.561Z,3.20
2023-08-09T11:34:10.322Z,4.85
2023-08-09T11:36:16.102Z,3.15
2023-08-09T11:37:18.361Z,2.78
2023-08-09T11:38:20.713Z,3.17
2023-08-09T11:39:27.823Z,4.82
2023-08-09T11:40:34.038Z,2.00
2023-08-09T11:41:45.780Z,3.83
2023-08-09T11:42:48.193Z,1.90
2023-08-09T11:43:50.626Z,2.17
2023-08-09T11:44:53.015Z,1.80
2023-08-09T11:45:56.797Z,2.22
2023-08-09T11:47:03.362Z,2.47
2023-08-09T11:48:06.871Z,2.35
2023-08-09T11:49:09.343Z,1.83
2023-08-09T11:50:21.573Z,4.70
2023-08-09T11:51:24.118Z,1.70
2023-08-09T11:53:49.587Z,2.90
2023-08-09T11:54:52.911Z,2.90
2023-08-09T11:56:01.022Z,2.30
2023-08-09T11:57:07.510Z,2.95
2023-08-09T11:58:10.146Z,1.80
2023-08-09T11:59:18.311Z,1.80
2023-08-09T12:00:27.547Z,2.10
2023-08-09T12:01:32.848Z,2.05
2023-08-09T12:02:38.088Z,1.65
2023-08-09T12:03:41.165Z,2.70
2023-08-09T12:04:44.677Z,2.28
2023-08-09T12:05:53.815Z,2.25
2023-08-09T12:07:00.785Z,3.55
2023-08-09T12:08:10.123Z,2.55
2023-08-09T12:09:35.851Z,5.25
2023-08-09T12:10:44.738Z,1.83
2023-08-09T12:11:50.683Z,1.65
2023-08-09T12:12:53.075Z,1.73
2023-08-09T12:13:55.429Z,2.10
2023-08-09T12:14:57.811Z,5.10
2023-08-09T12:16:02.506Z,1.70
2023-08-09T12:17:06.544Z,2.42
2023-08-09T12:18:08.913Z,2.22
2023-08-09T12:19:11.362Z,5.28
2023-08-09T12:20:15.112Z,1.67
2023-08-09T12:22:20.020Z,2.38
2023-08-09T12:23:22.875Z,2.65
2023-08-09T12:24:25.352Z,2.33
2023-08-09T12:25:27.764Z,2.45
2023-08-09T12:26:33.465Z,2.03
2023-08-09T12:27:36.027Z,1.85
2023-08-09T12:28:39.316Z,3.78
2023-08-09T12:29:42.186Z,4.45
2023-08-09T12:30:44.603Z,1.85
2023-08-09T12:31:47.195Z,2.25
2023-08-09T12:32:49.851Z,4.80
2023-08-09T12:33:54.356Z,2.10
2023-08-09T12:34:57.051Z,1.63
2023-08-09T12:35:59.824Z,2.28
2023-08-09T12:37:02.308Z,2.13
2023-08-09T12:38:04.954Z,3.72
2023-08-09T12:39:11.695Z,2.33
2023-08-09T12:40:14.478Z,2.60
2023-08-09T12:41:16.900Z,1.70
2023-08-09T12:42:19.349Z,2.00
2023-08-09T12:43:21.932Z,2.03
2023-08-09T12:44:27.181Z,1.98
2023-08-09T12:45:29.917Z,1.60
2023-08-09T12:46:32.886Z,1.63
2023-08-09T12:47:35.676Z,1.95
2023-08-09T12:48:38.170Z,2.55
2023-08-09T12:49:40.602Z,3.08
2023-08-09T12:50:43.205Z,2.13
2023-08-09T12:51:45.684Z,2.30
2023-08-09T12:52:55.380Z,2.88
2023-08-09T12:54:02.182Z,1.95
2023-08-09T12:55:05.869Z,3.60
2023-08-09T12:56:08.629Z,1.70
2023-08-09T12:57:11.281Z,2.22
2023-08-09T12:58:13.861Z,1.98
2023-08-09T12:59:16.348Z,1.88
2023-08-09T13:00:21.963Z,3.55
2023-08-09T13:01:25.246Z,1.83
2023-08-09T13:02:27.667Z,1.50
2023-08-09T13:03:30.820Z,3.20
2023-08-09T13:04:33.539Z,2.65
2023-08-09T13:05:36.175Z,3.78
2023-08-09T13:06:38.708Z,2.38
2023-08-09T13:07:41.182Z,2.65
2023-08-09T13:08:43.701Z,1.90
2023-08-09T13:09:46.166Z,2.15
2023-08-09T13:10:48.573Z,2.22
2023-08-09T13:11:51.217Z,1.83
2023-08-09T13:12:53.617Z,1.83
2023-08-09T13:13:56.391Z,2.08
2023-08-09T13:14:59.467Z,3.22
2023-08-09T13:16:03.291Z,2.40
2023-08-09T13:17:07.101Z,2.15
2023-08-09T13:18:09.662Z,2.47
2023-08-09T13:19:12.212Z,3.00
2023-08-09T13:20:14.764Z,2.97
2023-08-09T13:21:18.330Z,3.47
2023-08-09T13:23:23.097Z,3.83
2023-08-09T13:24:25.542Z,1.45
2023-08-09T13:25:27.943Z,3.05
2023-08-09T13:26:31.145Z,3.42
2023-08-09T13:27:33.551Z,2.83
2023-08-09T13:28:36.096Z,2.35
2023-08-09T13:29:38.430Z,2.20
2023-08-09T13:30:40.856Z,1.90
2023-08-09T13:31:43.339Z,1.83
2023-08-09T13:32:48.950Z,3.08
2023-08-09T13:33:51.853Z,3.97
2023-08-09T13:34:54.458Z,3.38
2023-08-09T13:35:56.840Z,3.55
2023-08-09T13:36:59.406Z,1.77
2023-08-09T13:38:05.595Z,1.95
2023-08-09T13:39:09.187Z,4.35
2023-08-09T13:41:15.093Z,2.00
2023-08-09T13:42:18.754Z,1.60
2023-08-09T13:44:24.679Z,2.83
2023-08-09T13:45:27.111Z,2.85
2023-08-09T13:46:29.829Z,2.65
2023-08-09T13:47:32.287Z,1.80
2023-08-09T13:48:35.983Z,2.17
2023-08-09T13:49:38.558Z,2.00
2023-08-09T13:50:40.970Z,1.55
2023-08-09T13:51:43.296Z,1.77
2023-08-09T13:52:45.673Z,2.50
2023-08-09T13:53:47.970Z,2.05
2023-08-09T13:54:52.163Z,2.35
2023-08-09T13:55:54.536Z,1.58
2023-08-09T13:56:57.269Z,3.63
2023-08-09T13:57:59.646Z,3.47
2023-08-09T13:59:02.037Z,2.35
2023-08-09T14:00:05.245Z,2.80
2023-08-09T14:01:11.611Z,1.70
2023-08-09T14:02:14.393Z,2.08
2023-08-09T14:03:17.071Z,1.88
2023-08-09T14:04:19.478Z,2.22
2023-08-09T14:05:22.233Z,2.58
2023-08-09T14:06:24.721Z,2.33
2023-08-09T14:07:27.140Z,1.70
2023-08-09T14:08:29.663Z,2.10
2023-08-09T14:09:33.046Z,2.08
2023-08-09T14:10:35.505Z,4.57
2023-08-09T14:11:38.282Z,1.88
2023-08-09T14:12:40.959Z,1.80
2023-08-09T14:13:43.289Z,2.42
2023-08-09T14:14:45.647Z,1.73
2023-08-09T14:15:49.819Z,1.85
2023-08-09T14:16:53.122Z,1.60
2023-08-09T14:17:55.764Z,4.40
2023-08-09T14:18:58.185Z,2.38
2023-08-09T14:20:01.543Z,1.75
2023-08-09T14:21:04.049Z,2.88
2023-08-09T14:22:07.231Z,3.25
2023-08-09T14:23:10.144Z,2.50
2023-08-09T14:24:12.852Z,2.75
2023-08-09T14:25:17.666Z,2.58
2023-08-09T14:26:20.417Z,1.83
2023-08-09T14:27:23.028Z,2.97
2023-08-09T14:28:25.523Z,3.08
2023-08-09T14:29:28.342Z,2.20
2023-08-09T14:30:30.946Z,4.55
2023-08-09T14:31:36.330Z,3.55
2023-08-09T14:32:38.690Z,1.58
2023-08-09T14:33:41.436Z,3.42
2023-08-09T14:34:44.095Z,2.03
2023-08-09T14:35:47.057Z,1.50
2023-08-09T14:36:49.765Z,2.08
2023-08-09T14:37:52.717Z,2.78
2023-08-09T14:38:56.079Z,3.10
2023-08-09T14:40:00.961Z,2.22
2023-08-09T14:41:03.984Z,3.92
2023-08-09T14:42:06.939Z,1.92
2023-08-09T14:43:10.138Z,2.05
2023-08-09T14:44:12.661Z,1.60
2023-08-09T14:45:18.946Z,2.13
2023-08-09T14:46:22.201Z,2.28
2023-08-09T14:47:24.951Z,1.95
2023-08-09T14:48:28.157Z,4.25
2023-08-09T14:49:30.834Z,2.47
2023-08-09T14:50:34.093Z,2.97
2023-08-09T14:51:37.379Z,2.20
2023-08-09T14:52:40.398Z,2.78
2023-08-09T14:53:43.265Z,2.38
2023-08-09T14:54:48.581Z,3.55
2023-08-09T14:55:51.092Z,2.80
2023-08-09T14:56:53.631Z,4.80
2023-08-09T14:57:57.113Z,2.88
2023-08-09T14:58:59.750Z,4.45
2023-08-09T15:00:02.685Z,1.85
2023-08-09T15:01:06.400Z,2.20
2023-08-09T15:02:09.310Z,2.08
2023-08-09T15:03:12.030Z,1.70
2023-08-09T15:04:20.234Z,3.90
2023-08-09T15:05:23.338Z,2.30
2023-08-09T15:06:26.386Z,2.35
2023-08-09T15:07:29.794Z,4.25
2023-08-09T15:08:32.727Z,2.95